Time;durP1;ratioP1;P1;durP2;ratioP2;P2;SDS_P1;SDS_P2;PMS_P1;PMS_P2;Temp;Humidity;BMP_temperature;BMP_pressure;BME280_temperature;BME280_humidity;BME280_pressure;Samples;Min_cycle;Max_cycle;Signal;HPM_P1;HPM_P2
2022/08/25 00:02:24;;;;;;;;;;;21.10;99.90;;;;;;5084653;28;19924;-82
2022/08/25 00:04:50;;;;;;;;;;;21.10;99.90;;;;;;5082237;28;19924;-82
2022/08/25 00:07:15;;;;;;;;;;;21.10;99.90;;;;;;5087728;28;20396;-82
2022/08/25 00:09:41;;;;;;;;;;;21.10;99.90;;;;;;5087452;28;19951;-82
2022/08/25 00:12:06;;;;;;;;;;;21.10;99.90;;;;;;5070137;28;20408;-83
2022/08/25 00:14:34;;;;;;;;;;;21.10;99.90;;;;;;5088175;28;20011;-82
2022/08/25 00:17:00;;;;;;;;;;;21.10;99.90;;;;;;5087152;28;19924;-82
2022/08/25 00:19:28;;;;;;;;;;;21.10;99.90;;;;;;5087914;28;19946;-82
2022/08/25 00:21:54;;;;;;;;;;;21.10;99.90;;;;;;5088247;28;19932;-82
2022/08/25 00:24:20;;;;;;;;;;;21.10;99.90;;;;;;5087300;28;20451;-82
2022/08/25 00:26:47;;;;;;;;;;;21.10;99.90;;;;;;5087733;28;19928;-82
2022/08/25 00:29:13;;;;;;;;;;;21.00;99.90;;;;;;5088271;28;19967;-82
2022/08/25 00:31:39;;;;;;;;;;;21.00;99.90;;;;;;5087772;28;19975;-82
2022/08/25 00:34:06;;;;;;;;;;;21.00;99.90;;;;;;5087672;28;19932;-82
2022/08/25 00:36:32;;;;;;;;;;;21.00;99.90;;;;;;5086963;28;19924;-83
2022/08/25 00:38:57;;;;;;;;;;;21.00;99.90;;;;;;5087365;28;19961;-82
2022/08/25 00:41:23;;;;;;;;;;;21.00;99.90;;;;;;5087648;28;19978;-82
2022/08/25 00:43:50;;;;;;;;;;;20.90;99.90;;;;;;5086403;28;20014;-82
2022/08/25 00:46:17;;;;;;;;;;;21.00;99.90;;;;;;5087591;28;19924;-82
2022/08/25 00:48:44;;;;;;;;;;;20.90;99.90;;;;;;5087399;28;19976;-82
2022/08/25 00:51:12;;;;;;;;;;;20.90;99.90;;;;;;5086125;28;19947;-82
2022/08/25 00:53:38;;;;;;;;;;;20.90;99.90;;;;;;5086396;28;20006;-82
2022/08/25 00:56:03;;;;;;;;;;;20.90;99.90;;;;;;5069661;28;20025;-82
2022/08/25 00:58:30;;;;;;;;;;;20.80;99.90;;;;;;5087042;28;19967;-82
2022/08/25 01:00:56;;;;;;;;;;;20.80;99.90;;;;;;5088026;28;19924;-82
2022/08/25 01:03:23;;;;;;;;;;;20.80;99.90;;;;;;5086926;28;20023;-82
2022/08/25 01:05:48;;;;;;;;;;;20.70;99.90;;;;;;5086765;28;20507;-82
2022/08/25 01:08:15;;;;;;;;;;;20.70;99.90;;;;;;5085728;28;19924;-82
2022/08/25 01:10:42;;;;;;;;;;;20.70;99.90;;;;;;5086748;28;19924;-82
2022/08/25 01:13:09;;;;;;;;;;;20.70;99.90;;;;;;5087405;28;20377;-82
2022/08/25 01:15:35;;;;;;;;;;;20.60;99.90;;;;;;5086366;28;19924;-82
2022/08/25 01:18:00;;;;;;;;;;;20.60;99.90;;;;;;5086282;28;20387;-82
2022/08/25 01:20:28;;;;;;;;;;;20.60;99.90;;;;;;5087022;28;19985;-83
2022/08/25 01:22:54;;;;;;;;;;;20.60;99.90;;;;;;5067787;28;19924;-82
2022/08/25 01:25:19;;;;;;;;;;;20.60;99.90;;;;;;5087026;28;19971;-82
2022/08/25 01:27:45;;;;;;;;;;;20.60;99.90;;;;;;5086556;28;19974;-82
2022/08/25 01:30:11;;;;;;;;;;;20.50;99.90;;;;;;5086572;28;19924;-83
2022/08/25 01:32:36;;;;;;;;;;;20.50;99.90;;;;;;5086380;28;19924;-82
2022/08/25 01:35:02;;;;;;;;;;;20.50;99.90;;;;;;5086921;28;19931;-80
2022/08/25 01:37:27;;;;;;;;;;;20.40;99.90;;;;;;5084910;28;20323;-82
2022/08/25 01:39:53;;;;;;;;;;;20.50;99.90;;;;;;5086185;28;20321;-82
2022/08/25 01:42:18;;;;;;;;;;;20.40;99.90;;;;;;5086324;28;19927;-82
2022/08/25 01:44:44;;;;;;;;;;;20.30;99.90;;;;;;5086121;28;20018;-82
2022/08/25 01:47:10;;;;;;;;;;;20.30;99.90;;;;;;5084770;28;19924;-82
2022/08/25 01:49:36;;;;;;;;;;;20.30;99.90;;;;;;5085106;28;19998;-82
2022/08/25 01:52:10;;;;;;;;;;;20.30;99.90;;;;;;5084946;28;19924;-82
2022/08/25 01:54:36;;;;;;;;;;;20.30;99.90;;;;;;5085092;28;19980;-82
2022/08/25 01:57:02;;;;;;;;;;;20.20;99.90;;;;;;5086394;28;19924;-82
2022/08/25 01:59:27;;;;;;;;;;;20.20;99.90;;;;;;5086280;28;19982;-82
2022/08/25 02:01:53;;;;;;;;;;;20.20;99.90;;;;;;5086047;28;19959;-82
2022/08/25 02:04:18;;;;;;;;;;;20.20;99.90;;;;;;5084816;28;19962;-82
2022/08/25 02:06:44;;;;;;;;;;;20.20;99.90;;;;;;5085683;28;19924;-82
2022/08/25 02:09:11;;;;;;;;;;;20.10;99.90;;;;;;5085644;28;19962;-82
2022/08/25 02:11:39;;;;;;;;;;;20.10;99.90;;;;;;5084573;28;21268;-82
2022/08/25 02:14:05;;;;;;;;;;;20.10;99.90;;;;;;5086402;28;19931;-82
2022/08/25 02:16:31;;;;;;;;;;;20.00;99.90;;;;;;5084395;28;20294;-82
2022/08/25 02:18:58;;;;;;;;;;;20.00;99.90;;;;;;5085947;28;19928;-82
2022/08/25 02:21:23;;;;;;;;;;;20.00;99.90;;;;;;5086301;28;19927;-82
2022/08/25 02:23:49;;;;;;;;;;;20.00;99.90;;;;;;5083330;28;20525;-82
2022/08/25 02:26:17;;;;;;;;;;;20.00;99.90;;;;;;5085525;28;19985;-82
2022/08/25 02:28:44;;;;;;;;;;;20.00;99.90;;;;;;5067873;28;19977;-82
2022/08/25 02:31:10;;;;;;;;;;;19.90;99.90;;;;;;5085279;28;19924;-82
2022/08/25 02:33:36;;;;;;;;;;;20.00;99.90;;;;;;5085615;28;19930;-82
2022/08/25 02:36:01;;;;;;;;;;;20.00;99.90;;;;;;5085534;28;19946;-82
2022/08/25 02:38:27;;;;;;;;;;;19.90;99.90;;;;;;5084591;28;19981;-82
2022/08/25 02:40:54;;;;;;;;;;;19.90;99.90;;;;;;5085642;28;19925;-81
2022/08/25 02:43:19;;;;;;;;;;;19.90;99.90;;;;;;5085132;28;20010;-82
2022/08/25 02:45:45;;;;;;;;;;;19.90;99.90;;;;;;5084930;28;20020;-82
2022/08/25 02:48:10;;;;;;;;;;;19.80;99.90;;;;;;5067155;28;19923;-82
2022/08/25 02:50:36;;;;;;;;;;;19.90;99.90;;;;;;5085463;28;20309;-81
2022/08/25 02:53:01;;;;;;;;;;;19.80;99.90;;;;;;5084382;28;19928;-82
2022/08/25 02:55:27;;;;;;;;;;;19.80;99.90;;;;;;5085737;28;19987;-82
2022/08/25 02:57:52;;;;;;;;;;;19.70;99.90;;;;;;5085116;28;20378;-82
2022/08/25 03:00:18;;;;;;;;;;;19.70;99.90;;;;;;5085289;28;20466;-82
2022/08/25 03:02:43;;;;;;;;;;;19.70;99.90;;;;;;5084645;28;19920;-82
2022/08/25 03:05:10;;;;;;;;;;;19.60;99.90;;;;;;5085169;28;19931;-82
2022/08/25 03:07:37;;;;;;;;;;;19.60;99.90;;;;;;5083618;28;19924;-82
2022/08/25 03:10:20;;;;;;;;;;;19.60;99.90;;;;;;5084807;28;19924;-83
2022/08/25 03:12:46;;;;;;;;;;;19.60;99.90;;;;;;5084213;28;19986;-82
2022/08/25 03:15:15;;;;;;;;;;;19.60;99.90;;;;;;5085056;28;19974;-82
2022/08/25 03:17:41;;;;;;;;;;;19.50;99.90;;;;;;5084569;28;19924;-82
2022/08/25 03:20:07;;;;;;;;;;;19.50;99.90;;;;;;5084939;28;19924;-82
2022/08/25 03:22:32;;;;;;;;;;;19.50;99.90;;;;;;5083448;28;19931;-82
2022/08/25 03:26:52;;;;;;;;;;;19.50;99.90;;;;;;5085071;28;19931;-82
2022/08/25 03:27:43;;;;;;;;;;;19.50;99.90;;;;;;5084685;28;19931;-82
2022/08/25 03:30:09;;;;;;;;;;;19.50;99.90;;;;;;5084753;28;19920;-82
2022/08/25 03:32:35;;;;;;;;;;;19.40;99.90;;;;;;5084308;28;19924;-82
2022/08/25 03:35:00;;;;;;;;;;;19.50;99.90;;;;;;5084786;28;19924;-82
2022/08/25 03:37:26;;;;;;;;;;;19.50;99.90;;;;;;5083713;28;20259;-82
2022/08/25 03:39:51;;;;;;;;;;;19.50;99.90;;;;;;5083919;28;19924;-82
2022/08/25 03:42:17;;;;;;;;;;;19.40;99.90;;;;;;5084228;28;19965;-82
2022/08/25 03:44:42;;;;;;;;;;;19.40;99.90;;;;;;5084682;28;19924;-82
2022/08/25 03:47:08;;;;;;;;;;;19.40;99.90;;;;;;5084279;28;20387;-81
2022/08/25 03:49:34;;;;;;;;;;;19.40;99.90;;;;;;5084229;28;19925;-82
2022/08/25 03:52:00;;;;;;;;;;;19.30;99.90;;;;;;5083633;28;20332;-81
2022/08/25 03:54:26;;;;;;;;;;;19.40;99.90;;;;;;5084478;28;19932;-82
2022/08/25 03:56:52;;;;;;;;;;;19.30;99.90;;;;;;5084104;28;20430;-81
2022/08/25 03:59:18;;;;;;;;;;;19.30;99.90;;;;;;5084889;28;19924;-82
2022/08/25 04:01:44;;;;;;;;;;;19.30;99.90;;;;;;5083992;28;19947;-82
2022/08/25 04:04:11;;;;;;;;;;;19.30;99.90;;;;;;5084405;28;20358;-82
2022/08/25 04:06:37;;;;;;;;;;;19.30;99.90;;;;;;5083921;28;20014;-82
2022/08/25 04:09:02;;;;;;;;;;;19.30;99.90;;;;;;5083209;28;20027;-82
2022/08/25 04:11:28;;;;;;;;;;;19.30;99.90;;;;;;5082979;28;19924;-82
2022/08/25 04:13:55;;;;;;;;;;;19.20;99.90;;;;;;5084498;28;19978;-82
2022/08/25 04:16:22;;;;;;;;;;;19.20;99.90;;;;;;5084087;28;19924;-82
2022/08/25 04:18:48;;;;;;;;;;;19.20;99.90;;;;;;5083941;28;19931;-82
2022/08/25 04:21:14;;;;;;;;;;;19.20;99.90;;;;;;5083931;28;19924;-82
2022/08/25 04:23:41;;;;;;;;;;;19.20;99.90;;;;;;5082614;28;20007;-82
2022/08/25 04:26:07;;;;;;;;;;;19.20;99.90;;;;;;5082832;28;19969;-82
2022/08/25 04:28:33;;;;;;;;;;;19.10;99.90;;;;;;5083859;28;20409;-81
2022/08/25 04:30:58;;;;;;;;;;;19.20;99.90;;;;;;5084268;28;19924;-78
2022/08/25 04:33:24;;;;;;;;;;;19.10;99.90;;;;;;5084430;28;19947;-82
2022/08/25 04:35:49;;;;;;;;;;;19.10;99.90;;;;;;5083565;28;19924;-82
2022/08/25 04:38:15;;;;;;;;;;;19.20;99.90;;;;;;5065250;28;20360;-82
2022/08/25 04:40:40;;;;;;;;;;;19.20;99.90;;;;;;5083489;28;20388;-82
2022/08/25 04:43:06;;;;;;;;;;;19.20;99.90;;;;;;5082971;28;20074;-82
2022/08/25 04:45:35;;;;;;;;;;;19.20;99.90;;;;;;5084050;28;19931;-82
2022/08/25 04:48:00;;;;;;;;;;;19.20;99.90;;;;;;5084028;28;19924;-82
2022/08/25 04:50:26;;;;;;;;;;;19.20;99.90;;;;;;5083152;28;20347;-82
2022/08/25 04:52:51;;;;;;;;;;;19.20;99.90;;;;;;5085205;28;19954;-82
2022/08/25 04:55:17;;;;;;;;;;;19.20;99.90;;;;;;5087583;28;20054;-82
2022/08/25 04:57:42;;;;;;;;;;;19.20;99.90;;;;;;5086167;28;19928;-82
2022/08/25 05:00:08;;;;;;;;;;;19.20;99.90;;;;;;5087416;28;19986;-81
2022/08/25 05:02:34;;;;;;;;;;;19.20;99.90;;;;;;5085615;28;20401;-82
2022/08/25 05:05:00;;;;;;;;;;;19.20;99.90;;;;;;5087173;28;19928;-82
2022/08/25 05:07:25;;;;;;;;;;;19.20;99.90;;;;;;5086405;28;19924;-82
2022/08/25 05:09:51;;;;;;;;;;;19.20;99.90;;;;;;5086730;28;19924;-82
2022/08/25 05:12:17;;;;;;;;;;;19.20;99.90;;;;;;5079846;28;19931;-82
2022/08/25 05:14:42;;;;;;;;;;;19.20;99.90;;;;;;5071680;28;19924;-83
2022/08/25 05:17:07;;;;;;;;;;;19.20;99.90;;;;;;5079924;28;20034;-82
2022/08/25 05:19:34;;;;;;;;;;;19.20;99.90;;;;;;5086207;28;20539;-82
2022/08/25 05:22:00;;;;;;;;;;;19.20;99.90;;;;;;5077721;28;19973;-82
2022/08/25 05:24:26;;;;;;;;;;;19.20;99.90;;;;;;5087106;28;19928;-83
2022/08/25 05:26:52;;;;;;;;;;;19.20;99.90;;;;;;5086278;28;20385;-83
2022/08/25 05:29:18;;;;;;;;;;;19.20;99.90;;;;;;5086590;28;19950;-82
2022/08/25 05:31:44;;;;;;;;;;;19.20;99.90;;;;;;5085908;28;19977;-82
2022/08/25 05:34:10;;;;;;;;;;;19.20;99.90;;;;;;5085031;28;19924;-82
2022/08/25 05:36:37;;;;;;;;;;;19.30;99.90;;;;;;5085040;28;20732;-82
2022/08/25 05:39:03;;;;;;;;;;;19.30;99.90;;;;;;5080599;28;19968;-82
2022/08/25 05:41:29;;;;;;;;;;;19.30;99.90;;;;;;5081156;28;19968;-80
2022/08/25 05:43:55;;;;;;;;;;;19.30;99.90;;;;;;5083382;28;20006;-80
2022/08/25 05:46:21;;;;;;;;;;;19.30;99.90;;;;;;5073248;28;20107;-80
2022/08/25 05:48:47;;;;;;;;;;;19.40;99.90;;;;;;5085305;28;19920;-79
2022/08/25 05:51:13;;;;;;;;;;;19.40;99.90;;;;;;5086305;28;19932;-80
2022/08/25 05:53:42;;;;;;;;;;;19.40;99.90;;;;;;5086090;28;20014;-80
2022/08/25 05:56:08;;;;;;;;;;;19.40;99.90;;;;;;5080326;28;19924;-78
2022/08/25 05:58:35;;;;;;;;;;;19.50;99.90;;;;;;5077113;28;20035;-80
2022/08/25 06:03:46;;;;;;;;;;;19.50;99.90;;;;;;5084375;28;19951;-77
2022/08/25 06:06:12;;;;;;;;;;;19.50;99.90;;;;;;5079475;28;20336;-77
2022/08/25 06:08:37;;;;;;;;;;;19.60;99.90;;;;;;5081465;28;19924;-79
2022/08/25 06:11:03;;;;;;;;;;;19.60;99.90;;;;;;5085293;28;19959;-77
2022/08/25 06:13:29;;;;;;;;;;;19.60;99.90;;;;;;5084877;28;19924;-76
2022/08/25 06:15:58;;;;;;;;;;;19.70;99.90;;;;;;5077187;28;19932;-75
2022/08/25 06:18:23;;;;;;;;;;;19.70;99.90;;;;;;5080297;28;19924;-77
2022/08/25 06:20:49;;;;;;;;;;;19.70;99.90;;;;;;5082032;28;19930;-78
2022/08/25 06:23:17;;;;;;;;;;;19.70;99.90;;;;;;5076151;28;19993;-78
2022/08/25 06:25:48;;;;;;;;;;;19.80;99.90;;;;;;5079151;28;19931;-76
2022/08/25 06:28:13;;;;;;;;;;;19.80;99.90;;;;;;5073464;28;19931;-75
2022/08/25 06:30:39;;;;;;;;;;;19.90;99.90;;;;;;5065886;28;19925;-75
2022/08/25 06:33:04;;;;;;;;;;;19.90;99.90;;;;;;5086012;28;19924;-75
2022/08/25 06:35:30;;;;;;;;;;;19.90;99.90;;;;;;5085360;28;20313;-75
2022/08/25 06:37:55;;;;;;;;;;;20.00;99.90;;;;;;5084042;28;19931;-75
2022/08/25 06:40:21;;;;;;;;;;;20.00;99.90;;;;;;5083870;28;19947;-75
2022/08/25 06:42:47;;;;;;;;;;;20.00;99.90;;;;;;5076621;28;20366;-77
2022/08/25 06:45:13;;;;;;;;;;;20.00;99.90;;;;;;5085347;28;19930;-76
2022/08/25 06:47:39;;;;;;;;;;;20.10;99.90;;;;;;5085155;28;20007;-77
2022/08/25 06:50:04;;;;;;;;;;;20.10;99.90;;;;;;5085151;28;19924;-76
2022/08/25 06:52:30;;;;;;;;;;;20.20;99.90;;;;;;5078241;28;19924;-76
2022/08/25 06:54:55;;;;;;;;;;;20.20;99.90;;;;;;5085811;28;20382;-76
2022/08/25 06:57:21;;;;;;;;;;;20.20;99.90;;;;;;5077432;28;20009;-76
2022/08/25 06:59:46;;;;;;;;;;;20.30;99.90;;;;;;5073630;28;19932;-84
2022/08/25 07:02:12;;;;;;;;;;;20.30;99.90;;;;;;5078300;28;19928;-82
2022/08/25 07:04:37;;;;;;;;;;;20.40;99.90;;;;;;5084784;28;20037;-81
2022/08/25 07:07:03;;;;;;;;;;;20.40;99.90;;;;;;5083503;28;19924;-80
2022/08/25 07:09:29;;;;;;;;;;;20.40;99.90;;;;;;5076277;28;19973;-77
2022/08/25 07:11:55;;;;;;;;;;;20.50;99.90;;;;;;5068489;28;20287;-77
2022/08/25 07:14:21;;;;;;;;;;;20.60;99.90;;;;;;5081294;28;20015;-77
2022/08/25 07:16:46;;;;;;;;;;;20.60;99.90;;;;;;5084543;28;20018;-84
2022/08/25 07:19:13;;;;;;;;;;;20.70;99.90;;;;;;5084271;28;20460;-77
2022/08/25 07:21:40;;;;;;;;;;;20.80;99.90;;;;;;5082006;28;19924;-76
2022/08/25 07:24:08;;;;;;;;;;;20.80;99.90;;;;;;5083163;28;20019;-76
2022/08/25 07:26:34;;;;;;;;;;;20.90;99.90;;;;;;5083634;28;19924;-76
2022/08/25 07:29:00;;;;;;;;;;;20.90;99.90;;;;;;5083695;28;20324;-76
2022/08/25 07:31:25;;;;;;;;;;;21.00;99.90;;;;;;5068771;28;19928;-76
2022/08/25 07:36:35;;;;;;;;;;;21.00;99.90;;;;;;5077101;28;19931;-83
2022/08/25 07:39:04;;;;;;;;;;;21.10;99.90;;;;;;5084376;28;19924;-81
2022/08/25 07:41:37;;;;;;;;;;;21.10;99.90;;;;;;5080963;28;20314;-84
2022/08/25 07:44:03;;;;;;;;;;;21.10;99.90;;;;;;5074862;28;19924;-82
2022/08/25 07:46:28;;;;;;;;;;;21.20;99.90;;;;;;5080253;28;20011;-79
2022/08/25 07:48:57;;;;;;;;;;;21.30;99.90;;;;;;5083074;28;20026;-80
2022/08/25 07:51:22;;;;;;;;;;;21.30;99.90;;;;;;5081562;28;20275;-85
2022/08/25 07:53:48;;;;;;;;;;;21.30;99.90;;;;;;5081914;28;19928;-81
2022/08/25 07:56:15;;;;;;;;;;;21.40;99.90;;;;;;5083167;28;20091;-89
2022/08/25 07:58:54;;;;;;;;;;;21.40;99.90;;;;;;5084762;28;19924;-88
2022/08/25 08:01:28;;;;;;;;;;;21.40;99.90;;;;;;5088830;28;19932;-89
2022/08/25 08:03:54;;;;;;;;;;;21.50;99.90;;;;;;5084760;28;20500;-79
2022/08/25 08:06:23;;;;;;;;;;;21.50;99.90;;;;;;5082050;28;19939;-78
2022/08/25 08:08:49;;;;;;;;;;;21.60;99.90;;;;;;5082426;28;20044;-78
2022/08/25 08:11:16;;;;;;;;;;;21.60;99.90;;;;;;5079662;28;20361;-78
2022/08/25 08:13:42;;;;;;;;;;;21.60;99.90;;;;;;5080414;28;20966;-78
2022/08/25 08:16:08;;;;;;;;;;;21.70;99.90;;;;;;5081305;28;19931;-78
2022/08/25 08:18:34;;;;;;;;;;;21.80;99.90;;;;;;5083055;28;20168;-78
2022/08/25 08:20:59;;;;;;;;;;;21.80;99.90;;;;;;5083208;28;20286;-78
2022/08/25 08:23:26;;;;;;;;;;;21.90;99.90;;;;;;5082745;28;19924;-78
2022/08/25 08:25:52;;;;;;;;;;;22.00;99.90;;;;;;5082670;28;19963;-78
2022/08/25 08:28:17;;;;;;;;;;;22.00;99.90;;;;;;5086554;28;19970;-79
2022/08/25 08:30:43;;;;;;;;;;;22.10;99.90;;;;;;5086290;28;19924;-81
2022/08/25 08:33:08;;;;;;;;;;;22.10;99.90;;;;;;5085629;28;19924;-80
2022/08/25 08:35:34;;;;;;;;;;;22.10;99.90;;;;;;5085704;28;19928;-80
2022/08/25 08:37:59;;;;;;;;;;;22.20;99.90;;;;;;5080928;28;19975;-80
2022/08/25 08:40:25;;;;;;;;;;;22.20;99.90;;;;;;5072259;28;20336;-78
2022/08/25 08:43:20;;;;;;;;;;;22.30;99.90;;;;;;5059924;28;21139;-81
2022/08/25 08:45:50;;;;;;;;;;;22.30;99.90;;;;;;5072687;28;20247;-79
2022/08/25 08:48:31;;;;;;;;;;;22.40;99.90;;;;;;5085346;28;19931;-82
2022/08/25 08:51:03;;;;;;;;;;;22.40;99.90;;;;;;5085507;28;20415;-78
2022/08/25 08:53:39;;;;;;;;;;;22.50;99.90;;;;;;5085840;28;19924;-77
2022/08/25 08:56:07;;;;;;;;;;;22.60;99.90;;;;;;5085223;28;19931;-79
2022/08/25 08:58:54;;;;;;;;;;;22.60;99.90;;;;;;5084470;28;20382;-79
2022/08/25 09:01:32;;;;;;;;;;;22.70;99.90;;;;;;5084161;28;19925;-79
2022/08/25 09:04:01;;;;;;;;;;;22.80;99.90;;;;;;5086541;28;20037;-79
2022/08/25 09:06:38;;;;;;;;;;;22.80;99.90;;;;;;5084411;28;20025;-79
2022/08/25 09:09:04;;;;;;;;;;;22.90;99.90;;;;;;5086566;28;20065;-79
2022/08/25 09:11:33;;;;;;;;;;;23.10;99.90;;;;;;5085880;28;19924;-79
2022/08/25 09:14:17;;;;;;;;;;;23.10;99.90;;;;;;5085020;28;20020;-80
2022/08/25 09:16:55;;;;;;;;;;;23.30;99.90;;;;;;5086254;28;19949;-81
2022/08/25 09:19:23;;;;;;;;;;;23.30;99.90;;;;;;5086260;28;19952;-80
2022/08/25 09:21:57;;;;;;;;;;;23.40;99.90;;;;;;5085757;28;19928;-80
2022/08/25 09:24:34;;;;;;;;;;;23.50;99.90;;;;;;5085112;28;19924;-80
2022/08/25 09:27:19;;;;;;;;;;;23.50;99.90;;;;;;5085023;28;19963;-79
2022/08/25 09:29:50;;;;;;;;;;;23.50;99.90;;;;;;5085869;28;20027;-79
2022/08/25 09:32:16;;;;;;;;;;;23.60;99.90;;;;;;5084634;28;19924;-77
2022/08/25 09:34:42;;;;;;;;;;;23.70;99.90;;;;;;5085960;28;19932;-78
2022/08/25 09:37:07;;;;;;;;;;;23.70;99.90;;;;;;5084856;28;20011;-78
2022/08/25 09:39:33;;;;;;;;;;;23.80;99.90;;;;;;5085194;28;20015;-79
2022/08/25 09:41:59;;;;;;;;;;;23.90;99.90;;;;;;5085892;28;19939;-80
2022/08/25 09:44:33;;;;;;;;;;;23.90;99.90;;;;;;5084689;28;20434;-81
2022/08/25 09:47:04;;;;;;;;;;;24.00;99.90;;;;;;5084738;28;19943;-79
2022/08/25 09:49:40;;;;;;;;;;;24.00;99.90;;;;;;5085584;28;19932;-81
2022/08/25 09:52:36;;;;;;;;;;;24.10;99.90;;;;;;5084675;28;19928;-78
2022/08/25 09:55:04;;;;;;;;;;;24.20;99.90;;;;;;5046890;28;20349;-80
2022/08/25 09:57:43;;;;;;;;;;;24.20;99.90;;;;;;5085483;28;19950;-78
2022/08/25 10:00:09;;;;;;;;;;;24.30;99.90;;;;;;5084579;28;19971;-77
2022/08/25 10:02:35;;;;;;;;;;;24.30;99.90;;;;;;5085196;28;19974;-77
2022/08/25 10:05:15;;;;;;;;;;;24.40;99.90;;;;;;5085766;28;19924;-77
2022/08/25 10:07:48;;;;;;;;;;;24.50;99.90;;;;;;5083432;28;20448;-76
2022/08/25 10:10:22;;;;;;;;;;;24.60;99.90;;;;;;5084319;28;19928;-85
2022/08/25 10:12:47;;;;;;;;;;;24.60;99.90;;;;;;5084986;28;20011;-82
2022/08/25 10:15:21;;;;;;;;;;;24.70;99.90;;;;;;5085750;28;20011;-80
2022/08/25 10:17:47;;;;;;;;;;;24.70;99.90;;;;;;5085215;28;19932;-81
2022/08/25 10:20:16;;;;;;;;;;;24.80;99.90;;;;;;5085158;28;20374;-80
2022/08/25 10:22:42;;;;;;;;;;;24.90;99.90;;;;;;5084094;28;20302;-77
2022/08/25 10:25:09;;;;;;;;;;;24.90;99.90;;;;;;5085286;28;19924;-81
2022/08/25 10:27:49;;;;;;;;;;;24.90;99.90;;;;;;5084913;28;19928;-80
2022/08/25 10:30:18;;;;;;;;;;;24.90;99.90;;;;;;5083625;28;20720;-93
2022/08/25 10:32:45;;;;;;;;;;;25.00;99.90;;;;;;5083745;28;19931;-89
2022/08/25 10:35:25;;;;;;;;;;;25.20;99.10;;;;;;5083668;28;19924;-88
2022/08/25 10:38:09;;;;;;;;;;;25.20;99.90;;;;;;5083679;28;19947;-84
2022/08/25 10:40:52;;;;;;;;;;;25.20;99.90;;;;;;5083389;28;19925;-84
2022/08/25 10:43:17;;;;;;;;;;;25.30;99.40;;;;;;5084996;28;19928;-85
2022/08/25 10:45:46;;;;;;;;;;;25.40;99.90;;;;;;5084905;28;20019;-83
2022/08/25 10:48:15;;;;;;;;;;;25.40;98.90;;;;;;5084844;28;20037;-82
2022/08/25 10:50:47;;;;;;;;;;;25.40;97.80;;;;;;5082204;28;20019;-91
2022/08/25 10:53:16;;;;;;;;;;;25.40;97.90;;;;;;5082315;28;19931;-93
2022/08/25 10:55:54;;;;;;;;;;;25.50;99.20;;;;;;5084782;28;20457;-89
2022/08/25 10:58:38;;;;;;;;;;;25.50;98.30;;;;;;5083257;28;19981;-77
2022/08/25 11:01:09;;;;;;;;;;;25.60;99.30;;;;;;5085051;28;19971;-79
2022/08/25 11:03:48;;;;;;;;;;;25.60;98.70;;;;;;5083736;28;19931;-79
2022/08/25 11:06:19;;;;;;;;;;;25.60;98.80;;;;;;5083658;28;19963;-79
2022/08/25 11:08:48;;;;;;;;;;;25.60;97.60;;;;;;5084013;28;20392;-79
2022/08/25 11:11:24;;;;;;;;;;;25.60;98.10;;;;;;5084568;28;19924;-79
2022/08/25 11:14:04;;;;;;;;;;;25.70;97.20;;;;;;5083537;28;20048;-79
2022/08/25 11:16:30;;;;;;;;;;;25.80;98.70;;;;;;5065926;28;19928;-79
2022/08/25 11:19:01;;;;;;;;;;;25.80;98.00;;;;;;5084470;28;19924;-79
2022/08/25 11:21:45;;;;;;;;;;;25.90;98.30;;;;;;5083713;28;19935;-79
2022/08/25 11:24:13;;;;;;;;;;;25.90;96.20;;;;;;5083758;28;20326;-78
2022/08/25 11:26:40;;;;;;;;;;;25.90;97.40;;;;;;5084375;28;19924;-79
2022/08/25 11:29:15;;;;;;;;;;;26.00;97.40;;;;;;5084805;28;19927;-79
2022/08/25 11:31:45;;;;;;;;;;;26.10;97.90;;;;;;5083505;28;19925;-79
2022/08/25 11:34:14;;;;;;;;;;;26.10;99.00;;;;;;5080575;28;19924;-79
2022/08/25 11:36:42;;;;;;;;;;;26.10;98.80;;;;;;5082335;28;20412;-78
2022/08/25 11:39:08;;;;;;;;;;;26.20;97.60;;;;;;5084276;28;19928;-79
2022/08/25 11:41:36;;;;;;;;;;;26.30;97.70;;;;;;5080154;28;20376;-81
2022/08/25 11:44:20;;;;;;;;;;;26.30;97.70;;;;;;5081673;28;19928;-79
2022/08/25 11:46:57;;;;;;;;;;;26.30;98.50;;;;;;5077768;28;19924;-80
2022/08/25 11:49:23;;;;;;;;;;;26.30;98.50;;;;;;5077314;28;19931;-79
2022/08/25 11:51:50;;;;;;;;;;;26.40;97.00;;;;;;5078029;28;20123;-84
2022/08/25 11:54:18;;;;;;;;;;;26.40;95.10;;;;;;5083994;28;19978;-84
2022/08/25 11:56:50;;;;;;;;;;;26.40;95.20;;;;;;5080477;28;19923;-84
2022/08/25 11:59:36;;;;;;;;;;;26.50;96.60;;;;;;5075495;28;19966;-86
2022/08/25 12:02:01;;;;;;;;;;;26.50;96.00;;;;;;5076964;28;19960;-81
2022/08/25 12:04:41;;;;;;;;;;;26.50;97.20;;;;;;5083548;28;20013;-89
2022/08/25 12:07:09;;;;;;;;;;;26.50;95.10;;;;;;5085304;28;19931;-90
2022/08/25 12:09:50;;;;;;;;;;;26.60;96.50;;;;;;5087529;28;19931;-80
2022/08/25 12:12:24;;;;;;;;;;;26.70;95.10;;;;;;5086235;28;20061;-82
2022/08/25 12:14:50;;;;;;;;;;;26.80;94.90;;;;;;5087178;28;19980;-80
2022/08/25 12:17:18;;;;;;;;;;;26.70;95.00;;;;;;5082417;28;19928;-81
2022/08/25 12:19:43;;;;;;;;;;;26.80;94.30;;;;;;5083251;28;20141;-81
2022/08/25 12:22:09;;;;;;;;;;;26.80;94.40;;;;;;5083436;28;19959;-80
2022/08/25 12:24:43;;;;;;;;;;;26.80;94.40;;;;;;5084638;28;19931;-81
2022/08/25 12:27:27;;;;;;;;;;;26.80;94.10;;;;;;5083030;28;19992;-80
2022/08/25 12:29:56;;;;;;;;;;;26.90;95.00;;;;;;5073368;28;20015;-81
2022/08/25 12:32:21;;;;;;;;;;;27.00;91.70;;;;;;5085495;28;19932;-81
2022/08/25 12:34:53;;;;;;;;;;;27.00;95.20;;;;;;5084034;28;19958;-82
2022/08/25 12:37:19;;;;;;;;;;;27.00;93.90;;;;;;5079146;28;19928;-81
2022/08/25 12:39:54;;;;;;;;;;;27.00;94.20;;;;;;5079079;28;19937;-80
2022/08/25 12:42:37;;;;;;;;;;;27.10;92.90;;;;;;5084993;28;19924;-82
2022/08/25 12:45:32;;;;;;;;;;;27.10;92.00;;;;;;5066846;28;20515;-80
2022/08/25 12:48:17;;;;;;;;;;;27.00;93.60;;;;;;5054932;28;19934;-81
2022/08/25 12:50:46;;;;;;;;;;;27.00;93.20;;;;;;5084922;28;19924;-82
2022/08/25 12:53:23;;;;;;;;;;;27.10;93.40;;;;;;5085507;28;20004;-79
2022/08/25 12:55:53;;;;;;;;;;;27.10;94.30;;;;;;5081125;28;19936;-82
2022/08/25 12:58:18;;;;;;;;;;;27.10;92.30;;;;;;5083671;28;19957;-85
2022/08/25 13:00:50;;;;;;;;;;;27.20;91.60;;;;;;5083760;28;19928;-84
2022/08/25 13:03:23;;;;;;;;;;;27.10;92.00;;;;;;5082603;28;19981;-83
2022/08/25 13:06:11;;;;;;;;;;;27.10;92.30;;;;;;5082516;28;19932;-83
2022/08/25 13:08:45;;;;;;;;;;;27.20;92.90;;;;;;5083301;28;20412;-84
2022/08/25 13:11:29;;;;;;;;;;;27.20;91.90;;;;;;5085841;28;19930;-83
2022/08/25 13:14:00;;;;;;;;;;;27.30;90.90;;;;;;5083008;28;19924;-79
2022/08/25 13:16:27;;;;;;;;;;;27.20;90.40;;;;;;5086089;28;19928;-79
2022/08/25 13:18:57;;;;;;;;;;;27.30;87.40;;;;;;5086111;28;19924;-79
2022/08/25 13:21:36;;;;;;;;;;;27.30;90.10;;;;;;5085497;28;20375;-80
2022/08/25 13:24:04;;;;;;;;;;;27.30;90.50;;;;;;5086071;28;20409;-79
2022/08/25 13:26:36;;;;;;;;;;;27.30;91.10;;;;;;5085894;28;19931;-79
2022/08/25 13:29:11;;;;;;;;;;;27.30;87.20;;;;;;5077877;28;20063;-79
2022/08/25 13:31:38;;;;;;;;;;;27.30;91.60;;;;;;5071515;28;19947;-79
2022/08/25 13:34:05;;;;;;;;;;;27.30;90.30;;;;;;5068822;28;20029;-81
2022/08/25 13:39:26;;;;;;;;;;;27.40;87.70;;;;;;5083547;28;19980;-77
2022/08/25 13:41:52;;;;;;;;;;;27.40;78.60;;;;;;5077203;28;20003;-77
2022/08/25 13:44:20;;;;;;;;;;;27.50;87.60;;;;;;5066683;28;20125;-78
2022/08/25 13:46:46;;;;;;;;;;;27.50;87.10;;;;;;5085582;28;19924;-76
2022/08/25 13:49:12;;;;;;;;;;;27.50;87.50;;;;;;5074383;28;19928;-75
2022/08/25 13:51:49;;;;;;;;;;;27.60;85.90;;;;;;5080078;28;20006;-75
2022/08/25 13:54:26;;;;;;;;;;;27.50;87.30;;;;;;5083401;28;20048;-82
2022/08/25 13:56:51;;;;;;;;;;;27.60;87.80;;;;;;5085388;28;19924;-81
2022/08/25 13:59:24;;;;;;;;;;;27.60;90.10;;;;;;5070964;28;19932;-77
2022/08/25 14:01:51;;;;;;;;;;;27.60;87.80;;;;;;5076204;28;19935;-77
2022/08/25 14:04:20;;;;;;;;;;;27.60;86.60;;;;;;5085406;28;20136;-77
2022/08/25 14:06:46;;;;;;;;;;;27.70;86.10;;;;;;5082855;28;20198;-78
2022/08/25 14:09:16;;;;;;;;;;;27.70;87.50;;;;;;5085641;28;19931;-79
2022/08/25 14:11:44;;;;;;;;;;;27.70;86.30;;;;;;5085238;28;19923;-80
2022/08/25 14:14:11;;;;;;;;;;;27.70;88.70;;;;;;5084883;28;19924;-79
2022/08/25 14:16:39;;;;;;;;;;;27.70;87.70;;;;;;5084928;28;19928;-79
2022/08/25 14:19:10;;;;;;;;;;;27.70;85.90;;;;;;5084743;28;20033;-80
2022/08/25 14:21:36;;;;;;;;;;;27.70;87.30;;;;;;5083951;28;20015;-80
2022/08/25 14:24:01;;;;;;;;;;;27.70;84.90;;;;;;5084222;28;20016;-77
2022/08/25 14:26:27;;;;;;;;;;;27.80;85.80;;;;;;5069972;28;19925;-78
2022/08/25 14:28:53;;;;;;;;;;;27.80;79.20;;;;;;5064596;28;19924;-78
2022/08/25 14:31:26;;;;;;;;;;;27.80;80.70;;;;;;5064789;28;19974;-76
2022/08/25 14:33:59;;;;;;;;;;;27.80;79.10;;;;;;5065189;28;19931;-77